createdAt,value
2022-11-03T00:02:07.776Z,90.40
2022-11-03T00:04:35.115Z,90.40
2022-11-03T00:07:02.388Z,90.40
2022-11-03T00:09:31.846Z,90.70
2022-11-03T00:11:59.553Z,90.80
2022-11-03T00:14:26.779Z,90.70
2022-11-03T00:16:55.014Z,90.80
2022-11-03T00:19:22.255Z,91.00
2022-11-03T00:21:49.933Z,91.20
2022-11-03T00:24:17.174Z,91.60
2022-11-03T00:26:44.411Z,91.80
2022-11-03T00:29:13.847Z,91.90
2022-11-03T00:31:42.878Z,91.90
2022-11-03T00:34:11.306Z,91.70
2022-11-03T00:36:41.767Z,91.60
2022-11-03T00:39:09.666Z,91.80
2022-11-03T00:41:37.461Z,91.90
2022-11-03T00:44:05.365Z,92.10
2022-11-03T00:46:35.826Z,92.30
2022-11-03T00:49:04.729Z,92.50
2022-11-03T00:51:34.303Z,92.80
2022-11-03T00:54:04.119Z,92.90
2022-11-03T00:56:34.305Z,92.90
2022-11-03T00:59:02.980Z,92.80
2022-11-03T01:01:40.613Z,92.50
2022-11-03T01:04:30.462Z,92.10
2022-11-03T01:06:59.886Z,91.80
2022-11-03T01:09:35.602Z,91.60
2022-11-03T01:12:14.724Z,91.50
2022-11-03T01:14:53.737Z,91.40
2022-11-03T01:17:27.162Z,91.30
2022-11-03T01:19:55.452Z,91.30
2022-11-03T01:22:24.089Z,91.40
2022-11-03T01:24:54.501Z,91.40
2022-11-03T01:27:23.218Z,91.40
2022-11-03T01:29:50.506Z,91.40
2022-11-03T01:32:17.832Z,91.50
2022-11-03T01:34:45.047Z,91.60
2022-11-03T01:37:12.501Z,91.70
2022-11-03T01:39:39.807Z,91.80
2022-11-03T01:42:07.189Z,91.80
2022-11-03T01:44:39.259Z,91.80
2022-11-03T01:47:15.186Z,92.00
2022-11-03T01:49:49.200Z,92.00
2022-11-03T01:52:34.282Z,92.30
2022-11-03T01:55:07.806Z,92.00
2022-11-03T01:57:41.354Z,91.90
2022-11-03T02:00:09.576Z,91.80
2022-11-03T02:02:45.283Z,91.90
2022-11-03T02:05:14.953Z,91.90
2022-11-03T02:08:06.463Z,91.90
2022-11-03T02:10:34.774Z,92.10
2022-11-03T02:13:08.910Z,92.00
2022-11-03T02:15:38.300Z,92.10
2022-11-03T02:18:06.462Z,92.10
2022-11-03T02:20:34.762Z,92.30
2022-11-03T02:23:15.356Z,92.50
2022-11-03T02:25:52.429Z,92.50
2022-11-03T02:28:23.705Z,92.50
2022-11-03T02:31:08.710Z,92.70
2022-11-03T02:33:40.565Z,92.70
2022-11-03T02:36:28.943Z,92.60
2022-11-03T02:39:07.615Z,92.40
2022-11-03T02:41:37.846Z,92.40
2022-11-03T02:44:08.054Z,92.50
2022-11-03T02:46:36.777Z,92.40
2022-11-03T02:49:04.147Z,92.20
2022-11-03T02:51:31.429Z,92.10
2022-11-03T02:54:30.907Z,92.00
2022-11-03T02:57:11.072Z,91.80
2022-11-03T02:59:47.442Z,91.40
2022-11-03T03:02:22.130Z,91.40
2022-11-03T03:04:55.286Z,91.40
2022-11-03T03:07:30.390Z,91.30
2022-11-03T03:10:08.491Z,91.20
2022-11-03T03:12:40.502Z,91.30
2022-11-03T03:15:09.230Z,91.40
2022-11-03T03:17:51.148Z,91.50
2022-11-03T03:20:28.598Z,91.70
2022-11-03T03:23:16.977Z,91.70
2022-11-03T03:25:54.598Z,91.60
2022-11-03T03:28:29.978Z,91.70
2022-11-03T03:31:00.501Z,91.80
2022-11-03T03:33:30.063Z,92.00
2022-11-03T03:35:59.617Z,92.00
2022-11-03T03:38:34.249Z,92.00
2022-11-03T03:41:05.527Z,92.00
2022-11-03T03:43:36.269Z,91.90
2022-11-03T03:46:10.412Z,92.00
2022-11-03T03:48:37.807Z,92.00
2022-11-03T03:51:07.048Z,92.00
2022-11-03T03:53:34.380Z,92.10
2022-11-03T03:56:01.688Z,91.90
2022-11-03T03:58:28.918Z,91.80
2022-11-03T04:00:56.316Z,91.90
2022-11-03T04:03:26.447Z,92.00
2022-11-03T04:05:54.395Z,92.10
2022-11-03T04:08:22.009Z,92.20
2022-11-03T04:11:07.868Z,92.30
2022-11-03T04:13:53.729Z,92.50
2022-11-03T04:16:39.426Z,92.60
2022-11-03T04:19:27.413Z,92.60
2022-11-03T04:22:13.087Z,92.60
2022-11-03T04:24:40.366Z,92.60
2022-11-03T04:27:36.821Z,92.60
2022-11-03T04:30:09.765Z,92.80
2022-11-03T04:32:37.963Z,92.80
2022-11-03T04:35:37.703Z,92.70
2022-11-03T04:38:10.098Z,92.60
2022-11-03T04:40:37.564Z,92.60
2022-11-03T04:43:10.291Z,92.50
2022-11-03T04:45:38.329Z,92.50
2022-11-03T04:48:18.855Z,92.50
2022-11-03T04:50:47.388Z,92.50
2022-11-03T04:53:16.828Z,92.60
2022-11-03T04:55:46.051Z,92.90
2022-11-03T04:58:30.042Z,92.60
2022-11-03T05:01:00.396Z,92.80
2022-11-03T05:03:32.152Z,92.70
2022-11-03T05:06:09.279Z,92.80
2022-11-03T05:08:36.864Z,92.80
2022-11-03T05:11:25.747Z,92.70
2022-11-03T05:13:53.249Z,92.80
2022-11-03T05:16:20.863Z,92.80
2022-11-03T05:18:50.202Z,92.80
2022-11-03T05:21:21.350Z,92.80
2022-11-03T05:23:52.396Z,92.90
2022-11-03T05:26:31.352Z,92.90
2022-11-03T05:29:01.746Z,93.00
2022-11-03T05:31:32.015Z,92.90
2022-11-03T05:34:02.196Z,93.00
2022-11-03T05:36:33.702Z,93.00
2022-11-03T05:39:44.788Z,93.10
2022-11-03T05:42:28.058Z,93.10
2022-11-03T05:44:55.830Z,93.00
2022-11-03T05:47:27.906Z,93.00
2022-11-03T05:50:06.286Z,93.00
2022-11-03T05:52:33.827Z,93.40
2022-11-03T05:55:03.173Z,93.20
2022-11-03T05:57:32.935Z,93.20
2022-11-03T06:00:00.368Z,93.30
2022-11-03T06:02:41.618Z,93.20
2022-11-03T06:05:20.072Z,93.20
2022-11-03T06:07:48.484Z,93.30
2022-11-03T06:10:24.483Z,93.20
2022-11-03T06:13:01.637Z,93.30
2022-11-03T06:15:34.007Z,93.20
2022-11-03T06:18:12.762Z,93.20
2022-11-03T06:20:40.221Z,93.10
2022-11-03T06:23:12.223Z,93.00
2022-11-03T06:25:43.271Z,93.10
2022-11-03T06:28:18.528Z,93.00
2022-11-03T06:30:47.152Z,93.00
2022-11-03T06:33:25.880Z,93.20
2022-11-03T06:35:59.132Z,92.90
2022-11-03T06:38:31.835Z,92.80
2022-11-03T06:40:59.417Z,92.70
2022-11-03T06:43:34.680Z,92.70
2022-11-03T06:46:08.387Z,92.60
2022-11-03T06:48:36.006Z,92.60
2022-11-03T06:51:04.144Z,93.00
2022-11-03T06:53:34.708Z,92.60
2022-11-03T06:56:02.606Z,92.50
2022-11-03T06:58:37.201Z,92.50
2022-11-03T07:01:43.873Z,92.50
2022-11-03T07:04:22.846Z,92.50
2022-11-03T07:06:53.562Z,92.40
2022-11-03T07:09:28.561Z,92.40
2022-11-03T07:11:58.475Z,92.30
2022-11-03T07:14:29.176Z,92.20
2022-11-03T07:17:05.451Z,92.10
2022-11-03T07:19:42.717Z,92.00
2022-11-03T07:22:19.878Z,91.80
2022-11-03T07:24:48.573Z,91.60
2022-11-03T07:27:29.824Z,91.40
2022-11-03T07:30:20.097Z,90.90
2022-11-03T07:32:50.961Z,90.60
2022-11-03T07:35:18.180Z,90.40
2022-11-03T07:37:47.922Z,90.50
2022-11-03T07:40:22.243Z,90.40
2022-11-03T07:42:50.835Z,90.30
2022-11-03T07:45:36.457Z,90.20
2022-11-03T07:48:19.945Z,90.10
2022-11-03T07:50:49.758Z,90.20
2022-11-03T07:53:29.125Z,90.20
2022-11-03T07:55:56.591Z,90.00
2022-11-03T07:58:39.726Z,89.90
2022-11-03T08:01:27.316Z,89.80
2022-11-03T08:04:01.696Z,89.60
2022-11-03T08:06:29.071Z,89.60
2022-11-03T08:08:56.433Z,89.30
2022-11-03T08:11:27.856Z,89.40
2022-11-03T08:13:57.172Z,89.00
2022-11-03T08:16:24.549Z,88.60
2022-11-03T08:18:51.784Z,88.30
2022-11-03T08:21:19.289Z,88.20
2022-11-03T08:23:47.821Z,88.10
2022-11-03T08:26:15.779Z,88.80
2022-11-03T08:28:43.090Z,88.30
2022-11-03T08:31:12.860Z,88.00
2022-11-03T08:33:41.228Z,87.60
2022-11-03T08:36:09.668Z,87.50
2022-11-03T08:38:37.404Z,87.00
2022-11-03T08:41:05.057Z,86.60
2022-11-03T08:43:32.388Z,85.20
2022-11-03T08:46:06.787Z,84.10
2022-11-03T08:48:40.295Z,83.80
2022-11-03T08:51:13.238Z,83.10
2022-11-03T08:53:42.461Z,83.00
2022-11-03T08:56:12.579Z,82.70
2022-11-03T08:58:41.076Z,81.70
2022-11-03T09:01:08.348Z,80.80
2022-11-03T09:03:35.778Z,80.70
2022-11-03T09:06:03.149Z,80.60
2022-11-03T09:11:17.633Z,80.30
2022-11-03T09:13:44.975Z,79.00
2022-11-03T09:16:12.438Z,79.50
2022-11-03T09:18:39.798Z,79.70
2022-11-03T09:21:07.290Z,78.70
2022-11-03T09:23:34.701Z,78.10
2022-11-03T09:26:01.994Z,78.30
2022-11-03T09:28:29.353Z,78.10
2022-11-03T09:30:56.600Z,78.00
2022-11-03T09:33:23.912Z,78.20
2022-11-03T09:35:51.147Z,77.20
2022-11-03T09:38:18.463Z,77.40
2022-11-03T09:40:45.782Z,77.40
2022-11-03T09:43:13.117Z,77.30
2022-11-03T09:45:40.480Z,76.40
2022-11-03T09:48:10.754Z,76.50
2022-11-03T09:50:38.918Z,75.60
2022-11-03T09:53:06.624Z,75.40
2022-11-03T09:55:34.897Z,75.00
2022-11-03T09:58:10.344Z,74.70
2022-11-03T10:00:37.649Z,74.80
2022-11-03T10:03:05.641Z,74.50
2022-11-03T10:05:33.952Z,74.20
2022-11-03T10:08:04.627Z,74.00
2022-11-03T10:10:32.236Z,74.40
2022-11-03T10:13:01.058Z,73.00
2022-11-03T10:15:28.560Z,73.50
2022-11-03T10:17:56.758Z,73.10
2022-11-03T10:20:24.193Z,72.60
2022-11-03T10:22:53.653Z,73.30
2022-11-03T10:25:33.682Z,72.60
2022-11-03T10:28:20.711Z,72.70
2022-11-03T10:31:11.321Z,72.90
2022-11-03T10:33:52.014Z,72.90
2022-11-03T10:36:19.316Z,73.00
2022-11-03T10:38:47.870Z,72.70
2022-11-03T10:41:16.639Z,72.50
2022-11-03T10:44:05.716Z,72.50
2022-11-03T10:49:21.104Z,73.20
2022-11-03T10:51:53.955Z,72.90
2022-11-03T10:54:23.906Z,72.90
2022-11-03T10:56:52.252Z,72.90
2022-11-03T10:59:31.877Z,72.90
2022-11-03T11:02:00.783Z,73.30
2022-11-03T11:04:28.511Z,73.60
2022-11-03T11:06:55.985Z,73.90
2022-11-03T11:09:26.925Z,74.30
2022-11-03T11:12:23.392Z,73.80
2022-11-03T11:14:57.758Z,73.90
2022-11-03T11:17:37.244Z,73.60
2022-11-03T11:20:37.793Z,73.80
2022-11-03T11:23:34.495Z,73.80
2022-11-03T11:26:11.491Z,73.50
2022-11-03T11:28:47.109Z,73.10
2022-11-03T11:31:26.453Z,72.90
2022-11-03T11:34:20.968Z,72.60
2022-11-03T11:37:14.747Z,72.60
2022-11-03T11:39:44.536Z,71.80
2022-11-03T11:42:21.106Z,71.40
2022-11-03T11:44:57.909Z,71.30
2022-11-03T11:47:29.917Z,70.90
2022-11-03T11:50:12.022Z,70.00
2022-11-03T11:53:02.401Z,69.90
2022-11-03T11:55:35.867Z,70.00
2022-11-03T11:58:05.871Z,69.70
2022-11-03T12:00:34.911Z,69.60
2022-11-03T12:03:06.001Z,69.30
2022-11-03T12:05:35.624Z,68.50
2022-11-03T12:08:16.489Z,68.40
2022-11-03T12:10:53.830Z,68.50
2022-11-03T12:13:47.513Z,68.50
2022-11-03T12:16:47.493Z,68.20
2022-11-03T12:19:35.213Z,67.70
2022-11-03T12:22:05.044Z,68.00
2022-11-03T12:24:32.437Z,67.60
2022-11-03T12:27:00.709Z,67.70
2022-11-03T12:29:28.109Z,67.80
2022-11-03T12:31:56.010Z,67.90
2022-11-03T12:34:23.223Z,68.20
2022-11-03T12:36:55.985Z,68.30
2022-11-03T12:39:23.654Z,68.30
2022-11-03T12:41:50.943Z,68.30
2022-11-03T12:44:18.220Z,68.20
2022-11-03T12:46:45.627Z,68.30
2022-11-03T12:49:12.863Z,68.30
2022-11-03T12:51:40.105Z,68.30
2022-11-03T12:54:07.556Z,68.60
2022-11-03T12:56:34.826Z,68.50
2022-11-03T12:59:02.216Z,68.60
2022-11-03T13:01:29.799Z,68.80
2022-11-03T13:03:57.200Z,69.00
2022-11-03T13:06:24.575Z,68.90
2022-11-03T13:08:53.324Z,68.90
2022-11-03T13:11:39.422Z,69.50
2022-11-03T13:14:06.870Z,69.50
2022-11-03T13:16:34.142Z,69.90
2022-11-03T13:19:01.572Z,70.10
2022-11-03T13:21:28.813Z,70.20
2022-11-03T13:23:56.443Z,70.20
2022-11-03T13:26:23.821Z,70.50
2022-11-03T13:28:51.087Z,70.70
2022-11-03T13:31:18.341Z,70.90
2022-11-03T13:33:45.875Z,71.70
2022-11-03T13:36:13.249Z,70.90
2022-11-03T13:38:40.488Z,71.20
2022-11-03T13:41:09.199Z,71.40
2022-11-03T13:43:37.131Z,71.40
2022-11-03T13:46:05.296Z,71.50
2022-11-03T13:51:21.662Z,71.80
2022-11-03T14:07:07.580Z,72.70
2022-11-03T14:12:26.081Z,73.10
2022-11-03T14:14:53.356Z,73.20
2022-11-03T14:17:20.643Z,73.50
2022-11-03T14:19:52.389Z,74.40
2022-11-03T14:22:24.104Z,73.70
2022-11-03T14:24:51.965Z,74.80
2022-11-03T14:27:20.115Z,74.40
2022-11-03T14:29:50.415Z,74.90
2022-11-03T14:32:19.252Z,75.10
2022-11-03T14:34:47.696Z,75.40
2022-11-03T14:37:15.466Z,75.60
2022-11-03T14:39:42.920Z,75.90
2022-11-03T14:42:15.383Z,76.20
2022-11-03T14:44:45.254Z,76.60
2022-11-03T14:47:18.017Z,76.80
2022-11-03T14:49:46.599Z,77.10
2022-11-03T14:52:15.237Z,77.10
2022-11-03T14:54:43.238Z,77.30
2022-11-03T14:57:10.516Z,77.50
2022-11-03T14:59:38.087Z,77.80
2022-11-03T15:02:06.271Z,77.90
2022-11-03T15:04:33.853Z,78.10
2022-11-03T15:07:01.277Z,78.30
2022-11-03T15:09:28.630Z,78.40
2022-11-03T15:11:56.096Z,78.60
2022-11-03T15:14:23.919Z,78.80
2022-11-03T15:16:51.213Z,79.00
2022-11-03T15:19:18.475Z,79.20
2022-11-03T15:21:45.807Z,79.40
2022-11-03T15:27:00.559Z,79.80
2022-11-03T15:29:27.809Z,80.00
2022-11-03T15:31:55.159Z,80.10
2022-11-03T15:34:22.384Z,80.20
2022-11-03T15:36:49.772Z,80.20
2022-11-03T15:39:18.003Z,80.40
2022-11-03T15:41:45.247Z,80.60
2022-11-03T15:44:12.598Z,80.60
2022-11-03T15:46:39.941Z,80.60
2022-11-03T15:49:07.187Z,80.90
2022-11-03T15:51:34.438Z,81.00
2022-11-03T15:54:02.481Z,81.10
2022-11-03T15:56:30.193Z,81.30
2022-11-03T15:58:57.604Z,81.60
2022-11-03T16:01:37.451Z,81.90
2022-11-03T16:04:04.921Z,82.20
2022-11-03T16:07:06.233Z,82.50
2022-11-03T16:09:21.035Z,82.70
2022-11-03T16:11:48.360Z,83.10
2022-11-03T16:14:15.620Z,83.40
2022-11-03T16:16:42.871Z,83.70
2022-11-03T16:19:10.404Z,83.90
2022-11-03T16:21:37.869Z,84.00
2022-11-03T16:24:05.535Z,84.30
2022-11-03T16:26:33.341Z,84.50
2022-11-03T16:29:00.903Z,84.80
2022-11-03T16:31:28.220Z,85.00
2022-11-03T16:33:55.549Z,85.40
2022-11-03T16:36:22.857Z,85.60
2022-11-03T16:38:50.309Z,85.90
2022-11-03T16:41:17.685Z,86.10
2022-11-03T16:43:46.455Z,86.30
2022-11-03T16:46:13.854Z,86.70
2022-11-03T16:48:41.156Z,87.00
2022-11-03T16:51:08.417Z,87.30
2022-11-03T16:53:35.679Z,87.50
2022-11-03T16:56:02.994Z,87.70
2022-11-03T16:58:30.251Z,88.00
2022-11-03T17:00:57.618Z,88.90
2022-11-03T17:03:25.309Z,88.30
2022-11-03T17:05:52.731Z,88.50
2022-11-03T17:08:51.340Z,88.60
2022-11-03T17:11:07.399Z,88.70
2022-11-03T17:13:34.811Z,88.80
2022-11-03T17:16:02.212Z,89.10
2022-11-03T17:18:29.835Z,89.10
2022-11-03T17:20:57.103Z,89.20
2022-11-03T17:23:24.448Z,89.30
2022-11-03T17:25:52.171Z,89.30
2022-11-03T17:28:19.750Z,89.40
2022-11-03T17:30:48.358Z,89.50
2022-11-03T17:33:18.240Z,89.80
2022-11-03T17:35:46.407Z,89.80
2022-11-03T17:38:16.573Z,89.90
2022-11-03T17:40:46.456Z,90.00
2022-11-03T17:43:25.304Z,90.10
2022-11-03T17:45:52.693Z,90.10
2022-11-03T17:48:22.694Z,90.10
2022-11-03T17:50:53.545Z,90.20
2022-11-03T17:53:26.789Z,90.20
2022-11-03T17:56:27.822Z,90.30
2022-11-03T17:58:46.553Z,90.30
2022-11-03T18:01:24.118Z,90.30
2022-11-03T18:03:54.489Z,90.40
2022-11-03T18:06:22.003Z,90.30
2022-11-03T18:08:50.256Z,90.40
2022-11-03T18:11:45.062Z,90.40
2022-11-03T18:14:13.080Z,90.40
2022-11-03T18:16:41.008Z,90.50
2022-11-03T18:19:13.507Z,90.60
2022-11-03T18:21:41.342Z,90.60
2022-11-03T18:24:20.088Z,90.70
2022-11-03T18:26:48.830Z,90.80
2022-11-03T18:29:16.447Z,90.90
2022-11-03T18:31:50.348Z,91.00
2022-11-03T18:34:23.025Z,91.10
2022-11-03T18:36:52.659Z,91.30
2022-11-03T18:39:27.940Z,91.40
2022-11-03T18:41:56.151Z,91.60
2022-11-03T18:44:29.109Z,91.70
2022-11-03T18:46:57.957Z,91.90
2022-11-03T18:49:27.470Z,92.00
2022-11-03T18:52:02.852Z,92.20
2022-11-03T18:54:32.836Z,92.40
2022-11-03T18:57:01.555Z,92.50
2022-11-03T18:59:32.153Z,92.50
2022-11-03T19:01:59.710Z,92.70
2022-11-03T19:04:28.066Z,92.80
2022-11-03T19:06:56.347Z,93.00
2022-11-03T19:09:26.385Z,93.10
2022-11-03T19:11:56.994Z,93.20
2022-11-03T19:14:29.448Z,93.20
2022-11-03T19:19:46.523Z,93.50
2022-11-03T19:22:17.158Z,93.40
2022-11-03T19:24:45.166Z,93.50
2022-11-03T19:27:22.520Z,93.50
2022-11-03T19:29:50.128Z,93.60
2022-11-03T19:32:25.350Z,93.80
2022-11-03T19:35:01.284Z,93.90
2022-11-03T19:37:35.533Z,93.90
2022-11-03T19:40:08.887Z,94.00
2022-11-03T19:42:37.422Z,94.10
2022-11-03T19:45:07.390Z,94.40
2022-11-03T19:47:39.778Z,94.20
2022-11-03T19:50:23.884Z,94.30
2022-11-03T19:52:53.818Z,94.30
2022-11-03T19:55:22.353Z,94.50
2022-11-03T19:57:50.114Z,94.60
2022-11-03T20:00:19.705Z,94.60
2022-11-03T20:02:47.111Z,94.60
2022-11-03T20:05:15.175Z,94.60
2022-11-03T20:07:43.463Z,94.60
2022-11-03T20:10:16.630Z,94.60
2022-11-03T20:12:45.098Z,94.60
2022-11-03T20:15:17.478Z,94.60
2022-11-03T20:17:46.091Z,94.60
2022-11-03T20:20:15.804Z,94.70
2022-11-03T20:23:21.849Z,94.50
2022-11-03T20:25:49.475Z,94.60
2022-11-03T20:28:20.404Z,94.50
2022-11-03T20:30:49.272Z,94.50
2022-11-03T20:33:19.505Z,94.50
2022-11-03T20:35:48.840Z,94.50
2022-11-03T20:38:21.712Z,94.40
2022-11-03T20:40:55.770Z,94.40
2022-11-03T20:43:27.011Z,94.40
2022-11-03T20:45:56.800Z,94.50
2022-11-03T20:48:24.577Z,94.60
2022-11-03T20:50:53.631Z,94.70
2022-11-03T20:53:24.322Z,94.90
2022-11-03T20:55:52.690Z,95.00
2022-11-03T20:58:20.333Z,95.10
2022-11-03T21:00:49.090Z,95.40
2022-11-03T21:03:45.072Z,95.50
2022-11-03T21:06:13.541Z,95.50
2022-11-03T21:08:40.914Z,95.40
2022-11-03T21:11:25.231Z,95.30
2022-11-03T21:13:55.151Z,95.40
2022-11-03T21:16:43.292Z,95.30
2022-11-03T21:19:50.592Z,95.50
2022-11-03T21:25:15.030Z,95.50
2022-11-03T21:27:42.542Z,95.60
2022-11-03T21:30:15.381Z,95.70
2022-11-03T21:32:43.251Z,95.80
2022-11-03T21:35:16.837Z,95.90
2022-11-03T21:37:44.337Z,96.00
2022-11-03T21:40:11.959Z,96.00
2022-11-03T21:42:58.250Z,96.20
2022-11-03T21:45:26.175Z,96.30
2022-11-03T21:48:14.255Z,96.40
2022-11-03T21:50:42.669Z,96.40
2022-11-03T21:53:10.916Z,96.40
2022-11-03T21:55:38.650Z,96.30
2022-11-03T21:58:06.226Z,96.70
2022-11-03T22:00:34.058Z,96.40
2022-11-03T22:03:01.851Z,96.50
2022-11-03T22:05:29.504Z,96.50
2022-11-03T22:07:56.745Z,96.50
2022-11-03T22:10:24.415Z,96.40
2022-11-03T22:12:51.688Z,96.50
2022-11-03T22:15:37.513Z,96.50
2022-11-03T22:18:06.306Z,96.50
2022-11-03T22:20:54.565Z,96.60
2022-11-03T22:23:40.313Z,96.70
2022-11-03T22:26:31.371Z,96.70
2022-11-03T22:29:17.871Z,96.70
2022-11-03T22:31:45.527Z,96.80
2022-11-03T22:34:31.881Z,96.90
2022-11-03T22:36:59.253Z,96.90
2022-11-03T22:39:45.195Z,97.00
2022-11-03T22:42:31.517Z,97.00
2022-11-03T22:45:17.579Z,97.20
2022-11-03T22:47:44.889Z,97.30
2022-11-03T22:50:12.186Z,97.40
2022-11-03T22:52:39.454Z,97.50
2022-11-03T22:55:06.979Z,97.60
2022-11-03T22:57:34.253Z,97.70
2022-11-03T23:00:01.632Z,97.80
2022-11-03T23:02:28.890Z,97.80
2022-11-03T23:04:56.266Z,97.80
2022-11-03T23:07:28.474Z,97.90
2022-11-03T23:09:59.258Z,97.90
2022-11-03T23:12:28.670Z,97.90
2022-11-03T23:15:14.291Z,98.00
2022-11-03T23:17:59.964Z,98.10
2022-11-03T23:20:45.932Z,98.20
2022-11-03T23:23:33.503Z,98.30
2022-11-03T23:26:00.834Z,98.40
2022-11-03T23:28:28.099Z,98.40
2022-11-03T23:30:55.343Z,98.50
2022-11-03T23:33:22.592Z,98.50
2022-11-03T23:35:50.004Z,98.50
2022-11-03T23:38:17.354Z,98.50
2022-11-03T23:40:44.606Z,98.60
2022-11-03T23:43:11.942Z,98.60
2022-11-03T23:45:57.881Z,98.60
2022-11-03T23:48:43.914Z,98.60
2022-11-03T23:51:11.658Z,98.90
2022-11-03T23:53:39.263Z,98.70
2022-11-03T23:56:45.419Z,98.90
2022-11-03T23:59:14.769Z,98.90
